createdAt,value
2023-01-30T00:00:47.254Z,100498.50
2023-01-30T00:06:01.248Z,100495.94
2023-01-30T00:11:13.162Z,100479.66
2023-01-30T00:16:20.143Z,100454.84
2023-01-30T00:21:27.291Z,100445.47
2023-01-30T00:26:35.444Z,100448.03
2023-01-30T00:31:42.059Z,100432.63
2023-01-30T00:37:02.447Z,100420.63
2023-01-30T00:42:28.830Z,100401.81
2023-01-30T00:47:35.695Z,100388.06
2023-01-30T00:52:42.236Z,100372.69
2023-01-30T00:57:50.711Z,100338.47
2023-01-30T01:02:59.223Z,100335.03
2023-01-30T01:08:06.527Z,100311.06
2023-01-30T01:13:14.628Z,100299.09
2023-01-30T01:18:21.211Z,100291.38
2023-01-30T01:23:27.628Z,100284.56
2023-01-30T01:28:38.208Z,100275.16
2023-01-30T01:33:44.899Z,100267.44
2023-01-30T01:38:51.428Z,100250.31
2023-01-30T01:44:08.753Z,100243.47
2023-01-30T01:49:22.713Z,100234.91
2023-01-30T01:54:35.847Z,100237.47
2023-01-30T01:59:48.343Z,100234.03
2023-01-30T02:05:07.125Z,100216.91
2023-01-30T02:10:20.333Z,100210.94
2023-01-30T02:15:28.839Z,100202.38
2023-01-30T02:20:57.517Z,100186.97
2023-01-30T02:26:55.609Z,100174.09
2023-01-30T02:32:13.465Z,100161.25
2023-01-30T02:37:39.807Z,100150.13
2023-01-30T02:42:54.119Z,100145.00
2023-01-30T02:48:08.132Z,100137.28
2023-01-30T02:53:14.990Z,100123.59
2023-01-30T02:58:26.017Z,100107.34
2023-01-30T03:04:11.106Z,100091.97
2023-01-30T03:09:29.125Z,100067.97
2023-01-30T03:14:46.372Z,100061.09
2023-01-30T03:19:56.784Z,100030.31
2023-01-30T03:25:03.811Z,100030.31
2023-01-30T03:30:12.778Z,100028.56
2023-01-30T03:35:21.987Z,100015.72
2023-01-30T03:40:30.652Z,100001.16
2023-01-30T03:45:38.423Z,99988.34
2023-01-30T03:50:46.428Z,99983.19
2023-01-30T03:55:52.855Z,99963.50
2023-01-30T04:01:05.146Z,99939.53
2023-01-30T04:06:14.881Z,99939.53
2023-01-30T04:11:22.244Z,99926.69
2023-01-30T04:16:29.317Z,99908.72
2023-01-30T04:21:57.493Z,99903.59
2023-01-30T04:27:05.704Z,99899.31
2023-01-30T04:32:17.791Z,99875.31
2023-01-30T04:37:26.933Z,99869.34
2023-01-30T04:42:33.658Z,99860.81
2023-01-30T04:47:58.432Z,99859.09
2023-01-30T04:53:06.933Z,99848.78
2023-01-30T04:58:13.748Z,99828.25
2023-01-30T05:03:20.590Z,99819.72
2023-01-30T05:08:28.404Z,99812.84
2023-01-30T05:13:34.888Z,99800.00
2023-01-30T05:18:41.411Z,99788.88
2023-01-30T05:23:49.499Z,99782.06
2023-01-30T05:28:58.194Z,99776.91
2023-01-30T05:34:04.578Z,99764.09
2023-01-30T05:39:12.944Z,99747.81
2023-01-30T05:44:19.596Z,99744.38
2023-01-30T05:49:26.448Z,99741.81
2023-01-30T05:54:35.991Z,99740.94
2023-01-30T05:59:42.816Z,99734.13
2023-01-30T06:04:49.883Z,99726.41
2023-01-30T06:09:58.007Z,99725.56
2023-01-30T06:15:04.722Z,99722.16
2023-01-30T06:20:13.748Z,99696.47
2023-01-30T06:25:21.813Z,99672.50
2023-01-30T06:30:28.615Z,99683.63
2023-01-30T06:35:35.880Z,99670.81
2023-01-30T06:40:47.111Z,99674.22
2023-01-30T06:45:54.731Z,99673.38
2023-01-30T06:51:01.222Z,99648.53
2023-01-30T06:56:09.722Z,99645.97
2023-01-30T07:01:17.321Z,99646.81
2023-01-30T07:06:23.824Z,99640.84
2023-01-30T07:11:32.854Z,99628.00
2023-01-30T07:16:38.878Z,99614.34
2023-01-30T07:21:45.234Z,99594.66
2023-01-30T07:26:54.271Z,99580.97
2023-01-30T07:32:01.037Z,99570.69
2023-01-30T07:37:07.651Z,99575.81
2023-01-30T07:42:16.717Z,99579.25
2023-01-30T07:47:22.735Z,99574.09
2023-01-30T07:52:29.164Z,99570.69
2023-01-30T07:57:37.111Z,99558.72
2023-01-30T08:02:43.776Z,99559.59
2023-01-30T08:07:50.358Z,99546.75
2023-01-30T08:12:58.293Z,99534.78
2023-01-30T08:18:04.790Z,99536.47
2023-01-30T08:23:12.237Z,99543.31
2023-01-30T08:28:20.216Z,99538.19
2023-01-30T08:33:27.493Z,99534.75
2023-01-30T08:38:35.012Z,99523.66
2023-01-30T08:43:42.896Z,99507.38
2023-01-30T08:48:50.473Z,99496.28
2023-01-30T08:53:57.039Z,99488.56
2023-01-30T08:59:05.317Z,99476.59
2023-01-30T09:04:12.055Z,99476.59
2023-01-30T09:09:18.629Z,99461.19
2023-01-30T09:14:26.835Z,99463.75
2023-01-30T09:19:33.335Z,99464.63
2023-01-30T09:24:39.942Z,99454.34
2023-01-30T09:29:47.947Z,99454.34
2023-01-30T09:34:54.320Z,99433.81
2023-01-30T09:40:00.850Z,99432.09
2023-01-30T09:45:55.597Z,99414.13
2023-01-30T09:51:27.708Z,99404.72
2023-01-30T09:56:34.505Z,99402.13
2023-01-30T10:01:53.242Z,99403.00
2023-01-30T10:07:06.614Z,99390.19
2023-01-30T10:12:37.610Z,99376.47
2023-01-30T10:18:04.635Z,99361.06
2023-01-30T10:23:47.926Z,99351.63
2023-01-30T10:29:07.822Z,99343.94
2023-01-30T10:34:21.061Z,99342.22
2023-01-30T10:39:49.682Z,99326.81
2023-01-30T10:45:13.995Z,99315.69
2023-01-30T10:50:28.804Z,99322.50
2023-01-30T10:55:41.518Z,99308.84
2023-01-30T11:00:56.445Z,99310.50
2023-01-30T11:06:10.205Z,99309.63
2023-01-30T11:11:31.362Z,99308.72
2023-01-30T11:16:46.195Z,99290.72
2023-01-30T11:21:56.717Z,99281.31
2023-01-30T11:27:18.079Z,99278.75
2023-01-30T11:32:29.968Z,99275.31
2023-01-30T11:37:40.147Z,99270.16
2023-01-30T11:42:47.876Z,99267.63
2023-01-30T11:48:05.049Z,99252.19
2023-01-30T11:53:39.005Z,99247.94
2023-01-30T11:58:49.053Z,99254.78
2023-01-30T12:03:58.436Z,99236.81
2023-01-30T12:09:09.626Z,99239.34
2023-01-30T12:14:28.964Z,99243.63
2023-01-30T12:19:54.457Z,99240.19
2023-01-30T12:25:05.598Z,99235.91
2023-01-30T12:30:26.236Z,99235.06
2023-01-30T12:35:51.195Z,99241.88
2023-01-30T12:41:14.104Z,99232.47
2023-01-30T12:46:41.797Z,99239.31
2023-01-30T12:52:09.781Z,99217.06
2023-01-30T12:57:28.074Z,99208.47
2023-01-30T13:02:56.364Z,99229.88
2023-01-30T13:08:23.510Z,99229.00
2023-01-30T13:13:43.291Z,99228.13
2023-01-30T13:18:56.910Z,99214.41
2023-01-30T13:24:20.816Z,99220.41
2023-01-30T13:29:34.870Z,99219.53
2023-01-30T13:34:44.825Z,99203.25
2023-01-30T13:39:56.550Z,99209.22
2023-01-30T13:45:06.693Z,99204.06
2023-01-30T13:50:43.540Z,99205.78
2023-01-30T13:55:58.671Z,99206.63
2023-01-30T14:01:07.925Z,99215.19
2023-01-30T14:06:38.852Z,99218.59
2023-01-30T14:11:51.297Z,99236.56
2023-01-30T14:17:12.999Z,99236.56
2023-01-30T14:22:28.409Z,99233.13
2023-01-30T14:27:34.920Z,99232.28
2023-01-30T14:32:57.307Z,99225.41
2023-01-30T14:38:21.723Z,99224.56
2023-01-30T14:43:40.587Z,99213.44
2023-01-30T14:48:53.751Z,99217.69
2023-01-30T14:54:03.506Z,99216.84
2023-01-30T14:59:22.086Z,99206.53
2023-01-30T15:04:35.457Z,99208.25
2023-01-30T15:09:47.374Z,99211.69
2023-01-30T15:15:09.252Z,99209.94
2023-01-30T15:20:43.376Z,99218.53
2023-01-30T15:26:18.770Z,99220.22
2023-01-30T15:31:26.772Z,99219.38
2023-01-30T15:36:37.541Z,99230.50
2023-01-30T15:41:44.645Z,99240.75
2023-01-30T15:47:01.420Z,99252.78
2023-01-30T15:52:17.079Z,99252.75
2023-01-30T15:57:29.627Z,99245.03
2023-01-30T16:02:38.269Z,99236.47
2023-01-30T16:07:49.036Z,99235.59
2023-01-30T16:12:58.562Z,99246.72
2023-01-30T16:18:15.090Z,99237.28
2023-01-30T16:23:30.562Z,99250.97
2023-01-30T16:28:38.405Z,99258.69
2023-01-30T16:33:51.599Z,99257.81
2023-01-30T16:39:01.420Z,99263.81
2023-01-30T16:44:21.277Z,99262.09
2023-01-30T16:49:46.816Z,99273.22
2023-01-30T16:55:00.586Z,99274.06
2023-01-30T17:00:22.535Z,99265.50
2023-01-30T17:05:32.925Z,99268.06
2023-01-30T17:11:00.825Z,99290.31
2023-01-30T17:16:35.820Z,99294.59
2023-01-30T17:21:50.509Z,99304.88
2023-01-30T17:27:07.899Z,99296.31
2023-01-30T17:32:18.017Z,99297.16
2023-01-30T17:37:26.802Z,99296.28
2023-01-30T17:42:35.996Z,99298.00
2023-01-30T17:47:43.982Z,99288.56
2023-01-30T17:52:52.309Z,99304.81
2023-01-30T17:58:01.245Z,99302.28
2023-01-30T18:03:09.154Z,99299.69
2023-01-30T18:08:18.355Z,99304.81
2023-01-30T18:13:27.751Z,99307.41
2023-01-30T18:18:36.939Z,99309.97
2023-01-30T18:23:45.412Z,99327.09
2023-01-30T18:28:56.402Z,99322.78
2023-01-30T18:34:05.710Z,99321.09
2023-01-30T18:39:15.453Z,99320.25
2023-01-30T18:44:26.067Z,99325.38
2023-01-30T18:49:34.474Z,99319.38
2023-01-30T18:54:44.111Z,99321.94
2023-01-30T18:59:53.086Z,99315.06
2023-01-30T19:05:02.524Z,99311.66
2023-01-30T19:10:17.997Z,99323.66
2023-01-30T19:15:32.022Z,99329.59
2023-01-30T19:20:41.040Z,99334.75
2023-01-30T19:26:01.319Z,99345.88
2023-01-30T19:31:14.452Z,99345.91
2023-01-30T19:36:25.851Z,99348.47
2023-01-30T19:41:53.100Z,99339.91
2023-01-30T19:47:07.541Z,99356.19
2023-01-30T19:52:17.984Z,99351.06
2023-01-30T19:57:28.083Z,99363.06
2023-01-30T20:02:39.238Z,99351.03
2023-01-30T20:07:49.863Z,99349.34
2023-01-30T20:12:59.313Z,99358.75
2023-01-30T20:18:10.281Z,99375.91
2023-01-30T20:23:20.072Z,99382.75
2023-01-30T20:28:28.677Z,99398.19
2023-01-30T20:33:39.749Z,99394.78
2023-01-30T20:38:50.597Z,99401.63
2023-01-30T20:44:01.632Z,99407.59
2023-01-30T20:49:17.526Z,99419.56
2023-01-30T20:54:29.103Z,99418.69
2023-01-30T20:59:38.350Z,99422.13
2023-01-30T21:04:49.158Z,99435.84
2023-01-30T21:09:57.711Z,99448.72
2023-01-30T21:15:09.484Z,99450.41
2023-01-30T21:20:19.511Z,99437.56
2023-01-30T21:25:27.129Z,99448.69
2023-01-30T21:30:33.896Z,99445.28
2023-01-30T21:35:45.757Z,99443.56
2023-01-30T21:41:11.550Z,99447.81
2023-01-30T21:46:18.860Z,99455.56
2023-01-30T21:51:27.569Z,99452.13
2023-01-30T21:56:35.133Z,99459.84
2023-01-30T22:01:42.868Z,99453.84
2023-01-30T22:06:50.950Z,99470.13
2023-01-30T22:11:57.472Z,99482.97
2023-01-30T22:17:03.959Z,99491.56
2023-01-30T22:22:11.803Z,99493.28
2023-01-30T22:27:18.315Z,99509.53
2023-01-30T22:32:24.987Z,99512.09
2023-01-30T22:37:33.071Z,99516.38
2023-01-30T22:42:39.660Z,99515.50
2023-01-30T22:47:46.257Z,99521.53
2023-01-30T22:52:55.953Z,99523.22
2023-01-30T22:58:02.360Z,99527.50
2023-01-30T23:03:08.807Z,99527.50
2023-01-30T23:08:16.731Z,99516.34
2023-01-30T23:13:23.104Z,99530.91
2023-01-30T23:18:46.455Z,99525.75
2023-01-30T23:23:57.379Z,99514.59
2023-01-30T23:29:05.072Z,99511.16
2023-01-30T23:34:16.818Z,99526.59
2023-01-30T23:39:24.730Z,99517.19
2023-01-30T23:44:31.213Z,99522.31
2023-01-30T23:49:37.841Z,99528.31
2023-01-30T23:54:46.224Z,99520.59
2023-01-30T23:59:52.412Z,99535.16
